createdAt,value
2019-05-23T00:00:10.807Z,9.69
2019-05-23T00:02:41.925Z,9.73
2019-05-23T00:05:13.118Z,9.68
2019-05-23T00:07:45.498Z,9.60
2019-05-23T00:10:23.345Z,9.54
2019-05-23T00:13:02.093Z,9.55
2019-05-23T00:15:35.489Z,9.57
2019-05-23T00:18:08.852Z,9.57
2019-05-23T00:20:39.143Z,9.56
2019-05-23T00:23:08.758Z,9.53
2019-05-23T00:25:39.391Z,9.52
2019-05-23T00:28:09.088Z,9.45
2019-05-23T00:30:39.652Z,9.41
2019-05-23T00:33:10.146Z,9.38
2019-05-23T00:35:38.884Z,9.36
2019-05-23T00:38:07.829Z,9.36
2019-05-23T00:40:39.342Z,9.38
2019-05-23T00:43:09.784Z,9.36
2019-05-23T00:45:39.114Z,9.33
2019-05-23T00:48:08.029Z,9.24
2019-05-23T00:50:38.399Z,9.16
2019-05-23T00:53:07.110Z,9.08
2019-05-23T00:55:36.710Z,8.94
2019-05-23T00:58:05.822Z,8.85
2019-05-23T01:00:36.950Z,8.86
2019-05-23T01:03:06.826Z,8.88
2019-05-23T01:05:35.437Z,8.87
2019-05-23T01:08:06.030Z,8.82
2019-05-23T01:10:35.037Z,8.73
2019-05-23T01:13:04.159Z,8.65
2019-05-23T01:15:32.958Z,8.60
2019-05-23T01:18:02.063Z,8.56
2019-05-23T01:20:34.973Z,8.50
2019-05-23T01:23:05.255Z,8.47
2019-05-23T01:25:34.868Z,8.43
2019-05-23T01:28:03.902Z,8.44
2019-05-23T01:30:37.533Z,8.49
2019-05-23T01:33:07.930Z,8.54
2019-05-23T01:35:37.553Z,8.58
2019-05-23T01:38:07.943Z,8.65
2019-05-23T01:40:37.052Z,8.71
2019-05-23T01:43:05.656Z,8.76
2019-05-23T01:45:35.558Z,8.83
2019-05-23T01:48:05.912Z,8.84
2019-05-23T01:50:35.040Z,8.85
2019-05-23T01:53:05.727Z,8.88
2019-05-23T01:55:35.157Z,8.87
2019-05-23T01:58:04.058Z,8.88
2019-05-23T02:00:33.378Z,8.91
2019-05-23T02:03:02.221Z,8.92
2019-05-23T02:05:33.329Z,8.88
2019-05-23T02:08:04.998Z,8.82
2019-05-23T02:10:34.084Z,8.72
2019-05-23T02:13:04.016Z,8.60
2019-05-23T02:15:33.012Z,8.55
2019-05-23T02:18:02.285Z,8.56
2019-05-23T02:20:33.937Z,8.58
2019-05-23T02:23:02.969Z,8.56
2019-05-23T02:25:33.470Z,8.56
2019-05-23T02:28:04.129Z,8.53
2019-05-23T02:30:35.800Z,8.50
2019-05-23T02:33:03.785Z,8.48
2019-05-23T02:35:32.381Z,8.48
2019-05-23T02:38:10.311Z,8.49
2019-05-23T02:40:56.161Z,8.48
2019-05-23T02:43:26.997Z,8.48
2019-05-23T02:45:58.976Z,8.48
2019-05-23T02:48:31.486Z,8.47
2019-05-23T02:51:03.421Z,8.42
2019-05-23T02:53:33.829Z,8.35
2019-05-23T02:56:05.773Z,8.23
2019-05-23T02:58:44.893Z,8.16
2019-05-23T03:01:36.366Z,8.12
2019-05-23T03:04:08.329Z,8.11
2019-05-23T03:06:39.592Z,8.13
2019-05-23T03:09:08.697Z,8.14
2019-05-23T03:11:39.349Z,8.15
2019-05-23T03:14:11.214Z,8.14
2019-05-23T03:16:43.145Z,8.15
2019-05-23T03:19:18.710Z,8.18
2019-05-23T03:21:49.659Z,8.20
2019-05-23T03:24:20.079Z,8.21
2019-05-23T03:26:58.380Z,8.20
2019-05-23T03:29:28.825Z,8.18
2019-05-23T03:31:59.153Z,8.21
2019-05-23T03:34:29.379Z,8.24
2019-05-23T03:36:57.866Z,8.29
2019-05-23T03:39:27.755Z,8.30
2019-05-23T03:42:00.904Z,8.28
2019-05-23T03:44:30.082Z,8.23
2019-05-23T03:47:01.857Z,8.15
2019-05-23T03:49:31.135Z,8.06
2019-05-23T03:52:01.210Z,8.00
2019-05-23T03:54:32.660Z,7.93
2019-05-23T03:57:01.195Z,7.90
2019-05-23T03:59:31.499Z,7.92
2019-05-23T04:02:07.880Z,7.90
2019-05-23T04:04:37.736Z,7.86
2019-05-23T04:07:08.022Z,7.85
2019-05-23T04:09:39.354Z,7.85
2019-05-23T04:12:08.961Z,7.83
2019-05-23T04:14:38.638Z,7.78
2019-05-23T04:17:08.241Z,7.81
2019-05-23T04:19:37.006Z,7.81
2019-05-23T04:22:07.575Z,7.80
2019-05-23T04:24:40.709Z,7.75
2019-05-23T04:27:09.354Z,7.70
2019-05-23T04:29:41.230Z,7.68
2019-05-23T04:32:10.118Z,7.66
2019-05-23T04:34:39.732Z,7.60
2019-05-23T04:37:08.311Z,7.52
2019-05-23T04:39:36.951Z,7.43
2019-05-23T04:42:10.531Z,7.39
2019-05-23T04:44:44.267Z,7.38
2019-05-23T04:47:14.433Z,7.38
2019-05-23T04:49:43.034Z,7.41
2019-05-23T04:52:12.300Z,7.45
2019-05-23T04:54:41.843Z,7.49
2019-05-23T04:57:12.720Z,7.51
2019-05-23T04:59:43.128Z,7.51
2019-05-23T05:02:25.612Z,7.53
2019-05-23T05:04:44.566Z,7.51
2019-05-23T05:07:13.283Z,7.51
2019-05-23T05:09:43.527Z,7.54
2019-05-23T05:12:12.256Z,7.58
2019-05-23T05:14:46.238Z,7.63
2019-05-23T05:17:14.864Z,7.65
2019-05-23T05:19:43.604Z,7.68
2019-05-23T05:22:14.376Z,7.73
2019-05-23T05:24:43.009Z,7.80
2019-05-23T05:27:12.849Z,7.88
2019-05-23T05:29:41.617Z,7.94
2019-05-23T05:32:10.432Z,8.01
2019-05-23T05:34:39.141Z,8.07
2019-05-23T05:37:08.317Z,8.12
2019-05-23T05:39:37.367Z,8.30
2019-05-23T05:42:09.399Z,8.98
2019-05-23T05:44:40.676Z,9.84
2019-05-23T05:47:14.006Z,10.77
2019-05-23T05:49:46.842Z,11.64
2019-05-23T05:52:18.239Z,12.36
2019-05-23T05:54:46.883Z,13.06
2019-05-23T05:57:17.482Z,13.64
2019-05-23T05:59:49.488Z,14.27
2019-05-23T06:02:19.683Z,14.83
2019-05-23T06:04:48.707Z,15.30
2019-05-23T06:07:18.985Z,15.62
2019-05-23T06:09:49.505Z,15.79
2019-05-23T06:12:18.682Z,16.10
2019-05-23T06:14:47.329Z,16.35
2019-05-23T06:17:21.009Z,16.60
2019-05-23T06:19:49.928Z,16.93
2019-05-23T06:22:21.071Z,17.33
2019-05-23T06:24:58.263Z,17.58
2019-05-23T06:27:27.550Z,17.60
2019-05-23T06:30:03.187Z,17.66
2019-05-23T06:32:32.606Z,17.87
2019-05-23T06:35:01.462Z,18.25
2019-05-23T06:37:34.405Z,18.64
2019-05-23T06:40:12.028Z,19.04
2019-05-23T06:42:40.944Z,19.43
2019-05-23T06:45:11.378Z,19.90
2019-05-23T06:47:40.563Z,20.26
2019-05-23T06:50:16.102Z,20.20
2019-05-23T06:52:47.085Z,20.07
2019-05-23T06:55:15.901Z,20.08
2019-05-23T06:57:44.947Z,20.31
2019-05-23T07:00:25.963Z,20.63
2019-05-23T07:02:54.721Z,20.83
2019-05-23T07:05:37.226Z,21.07
2019-05-23T07:08:11.794Z,21.32
2019-05-23T07:10:44.828Z,21.49
2019-05-23T07:13:38.718Z,21.28
2019-05-23T07:16:16.715Z,20.74
2019-05-23T07:18:50.613Z,20.41
2019-05-23T07:21:29.440Z,20.60
2019-05-23T07:24:05.249Z,20.73
2019-05-23T07:26:48.221Z,20.68
2019-05-23T07:29:18.700Z,20.35
2019-05-23T07:31:48.542Z,19.92
2019-05-23T07:34:19.258Z,19.52
2019-05-23T07:39:36.905Z,19.36
2019-05-23T07:42:06.041Z,19.34
2019-05-23T07:44:47.463Z,19.12
2019-05-23T07:47:09.101Z,18.88
2019-05-23T07:49:39.166Z,18.90
2019-05-23T07:52:14.377Z,19.01
2019-05-23T07:54:55.439Z,19.07
2019-05-23T07:57:27.781Z,19.23
2019-05-23T07:59:58.472Z,19.45
2019-05-23T08:02:36.474Z,19.69
2019-05-23T08:05:10.223Z,19.67
2019-05-23T08:07:41.910Z,19.57
2019-05-23T08:10:14.165Z,19.30
2019-05-23T08:12:49.457Z,19.09
2019-05-23T08:15:21.566Z,18.96
2019-05-23T08:17:50.710Z,18.90
2019-05-23T08:20:21.232Z,18.84
2019-05-23T08:23:04.877Z,18.71
2019-05-23T08:25:41.131Z,18.49
2019-05-23T08:28:15.487Z,18.32
2019-05-23T08:30:46.096Z,18.17
2019-05-23T08:33:16.749Z,18.07
2019-05-23T08:35:47.438Z,18.00
2019-05-23T08:38:23.361Z,17.98
2019-05-23T08:40:58.391Z,17.95
2019-05-23T08:43:36.119Z,17.96
2019-05-23T08:46:06.573Z,17.97
2019-05-23T08:48:41.033Z,18.04
2019-05-23T08:52:07.378Z,18.11
2019-05-23T08:54:47.045Z,18.17
2019-05-23T08:57:19.274Z,18.30
2019-05-23T09:00:00.110Z,18.39
2019-05-23T09:02:30.684Z,18.45
2019-05-23T09:05:06.312Z,18.46
2019-05-23T09:07:36.459Z,18.37
2019-05-23T09:10:06.868Z,18.28
2019-05-23T09:12:36.712Z,18.19
2019-05-23T09:15:10.944Z,18.19
2019-05-23T09:17:53.110Z,18.16
2019-05-23T09:20:46.824Z,18.13
2019-05-23T09:23:15.725Z,18.09
2019-05-23T09:25:53.443Z,18.13
2019-05-23T09:28:27.047Z,18.16
2019-05-23T09:30:59.244Z,18.17
2019-05-23T09:33:30.864Z,18.20
2019-05-23T09:36:04.429Z,18.20
2019-05-23T09:38:37.513Z,18.20
2019-05-23T09:41:06.342Z,18.20
2019-05-23T09:46:42.299Z,18.10
2019-05-23T10:32:17.496Z,17.94
2019-05-23T10:51:21.010Z,18.16
2019-05-23T10:57:33.292Z,18.11
2019-05-23T11:00:27.729Z,18.11
2019-05-23T11:02:58.115Z,18.12
2019-05-23T11:05:42.291Z,18.12
2019-05-23T11:08:11.503Z,18.05
2019-05-23T11:10:46.724Z,17.94
2019-05-23T11:13:17.283Z,17.84
2019-05-23T11:15:49.438Z,17.72
2019-05-23T11:18:19.910Z,17.59
2019-05-23T11:20:49.478Z,17.51
2019-05-23T11:23:21.641Z,17.50
2019-05-23T11:25:52.614Z,17.53
2019-05-23T11:28:27.173Z,17.56
2019-05-23T11:30:57.560Z,17.57
2019-05-23T11:33:26.652Z,17.60
2019-05-23T11:35:57.453Z,17.64
2019-05-23T11:38:26.931Z,17.63
2019-05-23T11:41:00.129Z,17.63
2019-05-23T11:43:34.138Z,17.60
2019-05-23T11:46:07.344Z,17.63
2019-05-23T11:48:42.158Z,17.64
2019-05-23T11:51:15.322Z,17.64
2019-05-23T11:54:05.887Z,17.64
2019-05-23T11:56:18.854Z,17.66
2019-05-23T11:58:53.273Z,17.68
2019-05-23T12:01:33.983Z,17.70
2019-05-23T12:04:11.276Z,17.72
2019-05-23T12:07:10.660Z,17.73
2019-05-23T12:09:46.892Z,17.76
2019-05-23T12:12:18.693Z,17.80
2019-05-23T12:14:53.629Z,17.85
2019-05-23T12:17:27.242Z,17.88
2019-05-23T12:20:03.462Z,17.94
2019-05-23T12:25:38.351Z,18.04
2019-05-23T12:28:10.249Z,18.15
2019-05-23T12:30:43.975Z,18.24
2019-05-23T12:33:19.563Z,18.32
2019-05-23T12:36:06.272Z,18.37
2019-05-23T12:38:52.398Z,18.40
2019-05-23T12:41:22.783Z,18.41
2019-05-23T12:43:53.446Z,18.25
2019-05-23T12:46:29.138Z,18.14
2019-05-23T12:49:18.869Z,18.14
2019-05-23T12:52:09.531Z,18.06
2019-05-23T12:55:02.141Z,18.02
2019-05-23T13:00:40.578Z,17.91
2019-05-23T13:03:34.928Z,17.87
2019-05-23T13:06:09.140Z,17.87
2019-05-23T13:08:42.774Z,17.82
2019-05-23T13:11:18.186Z,17.76
2019-05-23T13:13:58.868Z,17.75
2019-05-23T13:19:25.114Z,17.71
2019-05-23T13:25:23.570Z,17.67
2019-05-23T13:36:55.912Z,17.67
2019-05-23T13:39:30.427Z,17.68
2019-05-23T13:42:15.276Z,17.74
2019-05-23T13:44:49.208Z,17.78
2019-05-23T13:47:29.918Z,17.80
2019-05-23T13:50:07.172Z,17.78
2019-05-23T13:52:41.922Z,17.74
2019-05-23T13:55:12.275Z,17.72
2019-05-23T13:57:46.501Z,17.69
2019-05-23T14:00:23.077Z,17.66
2019-05-23T14:03:01.108Z,17.67
2019-05-23T14:05:50.859Z,17.75
2019-05-23T14:08:23.534Z,17.81
2019-05-23T14:10:56.238Z,17.85
2019-05-23T14:13:43.091Z,17.83
2019-05-23T14:16:14.572Z,17.83
2019-05-23T14:18:52.982Z,17.74
2019-05-23T14:21:28.549Z,17.74
2019-05-23T14:23:57.374Z,17.74
2019-05-23T14:26:30.306Z,17.75
2019-05-23T14:29:19.580Z,17.73
2019-05-23T14:31:52.589Z,17.74
2019-05-23T14:34:25.441Z,17.77
2019-05-23T14:37:07.191Z,17.75
2019-05-23T14:39:44.324Z,17.82
2019-05-23T14:42:42.129Z,17.86
2019-05-23T14:48:38.711Z,17.99
2019-05-23T14:51:16.380Z,18.04
2019-05-23T14:53:54.130Z,18.09
2019-05-23T14:56:42.066Z,18.09
2019-05-23T14:59:16.749Z,18.24
2019-05-23T15:01:55.673Z,18.24
2019-05-23T15:04:30.704Z,18.29
2019-05-23T15:07:00.186Z,18.30
2019-05-23T15:09:33.302Z,18.29
2019-05-23T15:15:08.173Z,18.27
2019-05-23T15:17:39.036Z,18.25
2019-05-23T15:20:12.066Z,18.30
2019-05-23T15:22:40.840Z,18.30
2019-05-23T15:25:15.152Z,18.28
2019-05-23T15:27:54.536Z,18.28
2019-05-23T15:30:28.661Z,18.25
2019-05-23T15:36:05.417Z,18.11
2019-05-23T15:38:47.380Z,18.04
2019-05-23T15:41:22.401Z,17.98
2019-05-23T15:43:52.291Z,17.98
2019-05-23T15:46:24.482Z,18.07
2019-05-23T15:48:59.804Z,18.07
2019-05-23T15:51:31.924Z,18.08
2019-05-23T15:54:15.825Z,18.08
2019-05-23T15:56:54.417Z,18.05
2019-05-23T15:59:59.652Z,18.06
2019-05-23T16:02:33.738Z,18.02
2019-05-23T16:05:15.657Z,18.02
2019-05-23T16:07:59.369Z,17.97
2019-05-23T16:10:43.989Z,17.94
2019-05-23T16:13:21.623Z,17.91
2019-05-23T16:16:05.109Z,17.85
2019-05-23T16:18:35.546Z,17.89
2019-05-23T16:21:10.714Z,17.92
2019-05-23T16:23:45.271Z,17.88
2019-05-23T16:26:17.151Z,17.91
2019-05-23T16:28:46.600Z,17.91
2019-05-23T16:31:28.210Z,17.89
2019-05-23T16:33:59.662Z,17.90
2019-05-23T16:36:30.093Z,17.88
2019-05-23T16:39:13.034Z,17.85
2019-05-23T16:41:45.312Z,17.84
2019-05-23T16:44:17.116Z,17.79
2019-05-23T16:46:48.303Z,17.75
2019-05-23T16:49:22.733Z,17.72
2019-05-23T16:51:56.637Z,17.66
2019-05-23T16:54:27.386Z,17.58
2019-05-23T16:57:00.600Z,17.53
2019-05-23T16:59:33.462Z,17.47
2019-05-23T17:02:06.590Z,17.40
2019-05-23T17:04:38.757Z,17.33
2019-05-23T17:10:18.687Z,17.24
2019-05-23T17:12:51.627Z,17.19
2019-05-23T17:15:24.770Z,17.18
2019-05-23T17:18:09.777Z,17.19
2019-05-23T17:20:52.015Z,17.25
2019-05-23T17:23:40.290Z,17.28
2019-05-23T17:26:16.522Z,17.29
2019-05-23T17:28:46.773Z,17.32
2019-05-23T17:31:17.091Z,17.28
2019-05-23T17:33:47.090Z,17.28
2019-05-23T17:36:15.794Z,17.27
2019-05-23T17:38:47.037Z,17.27
2019-05-23T17:41:21.506Z,17.21
2019-05-23T17:43:52.821Z,17.19
2019-05-23T17:46:27.254Z,17.22
2019-05-23T17:48:55.998Z,17.23
2019-05-23T17:51:25.295Z,17.21
2019-05-23T17:53:54.145Z,17.22
2019-05-23T17:56:30.191Z,17.22
2019-05-23T17:59:10.633Z,17.20
2019-05-23T18:01:55.409Z,17.08
2019-05-23T18:04:25.029Z,17.08
2019-05-23T18:06:58.485Z,17.03
2019-05-23T18:09:29.370Z,16.98
2019-05-23T18:12:04.312Z,16.92
2019-05-23T18:14:43.598Z,16.85
2019-05-23T18:17:14.988Z,16.76
2019-05-23T22:24:20.080Z,14.01
2019-05-23T22:26:51.774Z,13.94
2019-05-23T22:29:20.998Z,13.94
2019-05-23T22:31:51.435Z,13.92
2019-05-23T22:34:36.101Z,13.90
2019-05-23T22:37:06.622Z,13.93
2019-05-23T22:39:58.750Z,13.94
2019-05-23T22:42:32.303Z,13.89
2019-05-23T22:45:07.161Z,13.84
2019-05-23T22:47:38.359Z,13.85
2019-05-23T22:50:13.321Z,13.89
2019-05-23T22:52:47.857Z,13.93
2019-05-23T22:55:20.583Z,13.97
2019-05-23T22:57:59.187Z,13.98
2019-05-23T23:00:33.956Z,13.97
2019-05-23T23:03:03.740Z,13.94
2019-05-23T23:05:32.683Z,13.92
2019-05-23T23:08:06.923Z,13.89
2019-05-23T23:10:39.370Z,13.87
2019-05-23T23:13:09.739Z,13.85
2019-05-23T23:15:43.282Z,13.85
2019-05-23T23:18:12.113Z,13.83
2019-05-23T23:20:40.917Z,13.81
2019-05-23T23:23:10.825Z,13.80
2019-05-23T23:25:39.699Z,13.78
2019-05-23T23:28:08.554Z,13.74
2019-05-23T23:30:45.571Z,13.73
2019-05-23T23:33:19.407Z,13.69
2019-05-23T23:35:49.111Z,13.67
2019-05-23T23:38:25.350Z,13.62
2019-05-23T23:40:55.912Z,13.60
2019-05-23T23:43:31.304Z,13.57
2019-05-23T23:46:22.952Z,13.51
2019-05-23T23:49:09.544Z,13.47
2019-05-23T23:51:58.933Z,13.42
2019-05-23T23:54:45.961Z,13.37
2019-05-23T23:57:32.863Z,13.33
